Central Square, NY (13036)

2:36 PM EDT on July 05, 2015 (GMT -0400)
Oneida River | | Change Station
CLOSE
Current Station
Personal Weather Station
Location: Pennellville, NY
Elevation: 377 ft
Nearby Weather Stations

Elev 377 ft 43.24 °N, 76.25 °W | Updated 3 minutes ago

Clear
Clear
80.8 °F
Feels Like 82 °F
N
0.7
Wind Variable Wind from West
Gusts 2.2 mph

Today
High -- | Low -- °F
--% Chance of Precip.
Yesterday
High -- | Low -- °F
Precip. -- in
5:30 AM 8:47 PM
Waning Gibbous, 83% visible
Pressure 30.11 in
Visibility 10.0 miles
Clouds Few 4000 ft
Heat Index 82 °F
Dew Point 62 °F
Humidity 52%
Rainfall 0.00 in
Snow Depth Not available.
UV 10 out of 12
Pollen 4.60 out of 12
Air Quality Not available.
Flu Activity Not available.
METAR KSYR 051754Z 29007KT 250V340 10SM FEW040 26/15 A3013 RMK AO2 SLP196 T02610150 10261 20183 50001 $

More Conditions Fewer Conditions

Pressure 30.11 in
Visibility 10.0 miles
Clouds Few 4000 ft
Heat Index 82 °F
Dew Point 62 °F
Humidity 52%
Rainfall 0.00 in
Snow Depth Not available.
UV 10 out of 12
Pollen 4.60 out of 12
Air Quality Not available.
Flu Activity Not available.
METAR KSYR 051754Z 29007KT 250V340 10SM FEW040 26/15 A3013 RMK AO2 SLP196 T02610150 10261 20183 50001 $

More Conditions Fewer Conditions

10-Day Weather Forecast

×

Almanac

Astronomy

Jul. 05, 2015 Rise Set
Actual Time
Civil Twilight
Nautical Twilight
Astronomical Twilight
Moon
Length of Visible Light
Length of Day
Tomorrow will be .
, % of the Moon is Illuminated

Today's Extremes

State Highs State Lows

Community

WunderPhotos

Upload Photos

1,835,345 photos uploaded!

WunderBlogs® & News

Nearby

Air Quality

  Air Quality AQ Index Pollutant
Not available.

Snow Depth

Station Depth Elevation

Earthquake Activity

City Distance Mag. Time & Date
Minimum magnitude displayed is 2.5.

Coastal Water Temperatures

Place Temperature

Stations

Nearby Weather Stations

Station Location Temp. Windchill Dew Point Humidity Wind Precip. Elev Updated Type